sensor_id;sensor_type;location;lat;lon;timestamp;P1;durP1;ratioP1;P2;durP2;ratioP2
54871;SDS011;43914;57.680;11.982;2022-12-18T00:01:26;42.83;;;18.25;;
54871;SDS011;43914;57.680;11.982;2022-12-18T00:03:59;44.05;;;17.30;;
54871;SDS011;43914;57.680;11.982;2022-12-18T00:06:27;43.68;;;14.98;;
54871;SDS011;43914;57.680;11.982;2022-12-18T00:08:55;43.17;;;14.28;;
54871;SDS011;43914;57.680;11.982;2022-12-18T00:11:23;41.45;;;16.62;;
54871;SDS011;43914;57.680;11.982;2022-12-18T00:13:53;35.23;;;15.80;;
54871;SDS011;43914;57.680;11.982;2022-12-18T00:16:22;45.40;;;17.82;;
54871;SDS011;43914;57.680;11.982;2022-12-18T00:18:51;42.48;;;16.10;;
54871;SDS011;43914;57.680;11.982;2022-12-18T00:21:20;40.92;;;15.68;;
54871;SDS011;43914;57.680;11.982;2022-12-18T00:23:47;41.77;;;15.18;;
54871;SDS011;43914;57.680;11.982;2022-12-18T00:26:25;36.08;;;14.28;;
54871;SDS011;43914;57.680;11.982;2022-12-18T00:28:48;46.08;;;18.45;;
54871;SDS011;43914;57.680;11.982;2022-12-18T00:31:17;49.05;;;16.35;;
54871;SDS011;43914;57.680;11.982;2022-12-18T00:33:47;37.05;;;14.63;;
54871;SDS011;43914;57.680;11.982;2022-12-18T00:36:14;32.60;;;13.45;;
54871;SDS011;43914;57.680;11.982;2022-12-18T00:38:44;35.85;;;14.75;;
54871;SDS011;43914;57.680;11.982;2022-12-18T00:41:11;36.28;;;16.70;;
54871;SDS011;43914;57.680;11.982;2022-12-18T00:43:41;25.82;;;9.98;;
54871;SDS011;43914;57.680;11.982;2022-12-18T00:46:07;26.65;;;11.15;;
54871;SDS011;43914;57.680;11.982;2022-12-18T00:48:33;26.27;;;10.37;;
54871;SDS011;43914;57.680;11.982;2022-12-18T00:50:59;24.57;;;11.22;;
54871;SDS011;43914;57.680;11.982;2022-12-18T00:53:25;29.23;;;13.00;;
54871;SDS011;43914;57.680;11.982;2022-12-18T00:55:51;30.87;;;12.80;;
54871;SDS011;43914;57.680;11.982;2022-12-18T00:58:17;36.63;;;15.00;;
54871;SDS011;43914;57.680;11.982;2022-12-18T01:00:43;32.60;;;13.13;;
54871;SDS011;43914;57.680;11.982;2022-12-18T01:03:10;31.25;;;12.07;;
54871;SDS011;43914;57.680;11.982;2022-12-18T01:05:39;41.37;;;16.80;;
54871;SDS011;43914;57.680;11.982;2022-12-18T01:08:06;36.25;;;15.32;;
54871;SDS011;43914;57.680;11.982;2022-12-18T01:10:32;32.42;;;12.55;;
54871;SDS011;43914;57.680;11.982;2022-12-18T01:12:58;31.65;;;13.83;;
54871;SDS011;43914;57.680;11.982;2022-12-18T01:15:24;31.23;;;13.83;;
54871;SDS011;43914;57.680;11.982;2022-12-18T01:17:51;29.27;;;12.68;;
54871;SDS011;43914;57.680;11.982;2022-12-18T01:20:19;34.95;;;15.20;;
54871;SDS011;43914;57.680;11.982;2022-12-18T01:22:45;29.05;;;12.82;;
54871;SDS011;43914;57.680;11.982;2022-12-18T01:25:13;32.73;;;14.05;;
54871;SDS011;43914;57.680;11.982;2022-12-18T01:27:39;28.50;;;11.60;;
54871;SDS011;43914;57.680;11.982;2022-12-18T01:30:06;33.67;;;15.03;;
54871;SDS011;43914;57.680;11.982;2022-12-18T01:32:33;33.02;;;13.58;;
54871;SDS011;43914;57.680;11.982;2022-12-18T01:34:59;30.40;;;11.93;;
54871;SDS011;43914;57.680;11.982;2022-12-18T01:37:25;34.27;;;14.27;;
54871;SDS011;43914;57.680;11.982;2022-12-18T01:39:52;37.30;;;13.93;;
54871;SDS011;43914;57.680;11.982;2022-12-18T01:42:20;30.32;;;11.85;;
54871;SDS011;43914;57.680;11.982;2022-12-18T01:47:56;41.53;;;15.10;;
54871;SDS011;43914;57.680;11.982;2022-12-18T01:50:36;27.77;;;11.22;;
54871;SDS011;43914;57.680;11.982;2022-12-18T01:53:10;32.78;;;13.13;;
54871;SDS011;43914;57.680;11.982;2022-12-18T01:55:45;27.55;;;11.20;;
54871;SDS011;43914;57.680;11.982;2022-12-18T01:58:14;30.90;;;12.47;;
54871;SDS011;43914;57.680;11.982;2022-12-18T02:00:41;25.92;;;10.35;;
54871;SDS011;43914;57.680;11.982;2022-12-18T02:03:08;25.43;;;10.45;;
54871;SDS011;43914;57.680;11.982;2022-12-18T02:05:40;25.15;;;9.93;;
54871;SDS011;43914;57.680;11.982;2022-12-18T02:17:00;32.17;;;13.25;;
54871;SDS011;43914;57.680;11.982;2022-12-18T02:19:42;27.62;;;10.38;;
54871;SDS011;43914;57.680;11.982;2022-12-18T02:25:05;36.65;;;13.75;;
54871;SDS011;43914;57.680;11.982;2022-12-18T02:30:03;32.75;;;10.85;;
54871;SDS011;43914;57.680;11.982;2022-12-18T02:32:32;42.75;;;15.23;;
54871;SDS011;43914;57.680;11.982;2022-12-18T02:35:05;33.07;;;13.87;;
54871;SDS011;43914;57.680;11.982;2022-12-18T02:37:35;35.17;;;13.08;;
54871;SDS011;43914;57.680;11.982;2022-12-18T02:40:05;32.38;;;11.75;;
54871;SDS011;43914;57.680;11.982;2022-12-18T02:42:33;32.70;;;11.97;;
54871;SDS011;43914;57.680;11.982;2022-12-18T02:44:59;40.27;;;14.23;;
54871;SDS011;43914;57.680;11.982;2022-12-18T02:47:27;35.15;;;11.93;;
54871;SDS011;43914;57.680;11.982;2022-12-18T02:50:10;36.53;;;13.43;;
54871;SDS011;43914;57.680;11.982;2022-12-18T02:53:16;32.85;;;11.35;;
54871;SDS011;43914;57.680;11.982;2022-12-18T02:56:11;31.52;;;12.53;;
54871;SDS011;43914;57.680;11.982;2022-12-18T02:58:58;31.05;;;11.22;;
54871;SDS011;43914;57.680;11.982;2022-12-18T03:01:42;36.75;;;12.30;;
54871;SDS011;43914;57.680;11.982;2022-12-18T03:04:39;35.28;;;12.45;;
54871;SDS011;43914;57.680;11.982;2022-12-18T03:07:15;39.88;;;12.85;;
54871;SDS011;43914;57.680;11.982;2022-12-18T03:09:44;36.60;;;12.85;;
54871;SDS011;43914;57.680;11.982;2022-12-18T03:12:15;38.73;;;12.45;;
54871;SDS011;43914;57.680;11.982;2022-12-18T03:17:46;29.72;;;11.75;;
54871;SDS011;43914;57.680;11.982;2022-12-18T03:20:17;27.67;;;11.22;;
54871;SDS011;43914;57.680;11.982;2022-12-18T03:22:47;28.77;;;11.63;;
54871;SDS011;43914;57.680;11.982;2022-12-18T03:25:17;35.88;;;12.18;;
54871;SDS011;43914;57.680;11.982;2022-12-18T03:27:47;37.48;;;11.65;;
54871;SDS011;43914;57.680;11.982;2022-12-18T03:30:16;32.98;;;11.15;;
54871;SDS011;43914;57.680;11.982;2022-12-18T03:35:22;29.42;;;9.95;;
54871;SDS011;43914;57.680;11.982;2022-12-18T03:37:57;33.63;;;11.63;;
54871;SDS011;43914;57.680;11.982;2022-12-18T03:40:26;39.85;;;12.53;;
54871;SDS011;43914;57.680;11.982;2022-12-18T03:43:00;35.00;;;13.00;;
54871;SDS011;43914;57.680;11.982;2022-12-18T03:45:34;31.80;;;11.60;;
54871;SDS011;43914;57.680;11.982;2022-12-18T03:48:08;37.35;;;13.10;;
54871;SDS011;43914;57.680;11.982;2022-12-18T03:51:01;30.97;;;12.35;;
54871;SDS011;43914;57.680;11.982;2022-12-18T03:53:39;35.10;;;11.57;;
54871;SDS011;43914;57.680;11.982;2022-12-18T03:56:08;37.63;;;13.10;;
54871;SDS011;43914;57.680;11.982;2022-12-18T03:58:36;33.60;;;12.53;;
54871;SDS011;43914;57.680;11.982;2022-12-18T04:01:04;33.83;;;11.80;;
54871;SDS011;43914;57.680;11.982;2022-12-18T04:03:33;36.25;;;12.63;;
54871;SDS011;43914;57.680;11.982;2022-12-18T04:06:02;34.03;;;12.65;;
54871;SDS011;43914;57.680;11.982;2022-12-18T04:08:29;40.23;;;13.48;;
54871;SDS011;43914;57.680;11.982;2022-12-18T04:10:55;35.13;;;12.58;;
54871;SDS011;43914;57.680;11.982;2022-12-18T04:13:27;37.10;;;13.20;;
54871;SDS011;43914;57.680;11.982;2022-12-18T04:15:56;39.10;;;12.78;;
54871;SDS011;43914;57.680;11.982;2022-12-18T04:18:22;35.73;;;12.28;;
54871;SDS011;43914;57.680;11.982;2022-12-18T04:20:48;31.80;;;11.57;;
54871;SDS011;43914;57.680;11.982;2022-12-18T04:23:14;40.37;;;13.90;;
54871;SDS011;43914;57.680;11.982;2022-12-18T04:25:40;37.50;;;12.35;;
54871;SDS011;43914;57.680;11.982;2022-12-18T04:28:06;30.10;;;11.20;;
54871;SDS011;43914;57.680;11.982;2022-12-18T04:30:32;30.55;;;11.83;;
54871;SDS011;43914;57.680;11.982;2022-12-18T04:32:59;35.00;;;12.15;;
54871;SDS011;43914;57.680;11.982;2022-12-18T04:35:25;34.13;;;11.25;;
54871;SDS011;43914;57.680;11.982;2022-12-18T04:37:51;31.55;;;10.28;;
54871;SDS011;43914;57.680;11.982;2022-12-18T04:40:17;38.47;;;12.23;;
54871;SDS011;43914;57.680;11.982;2022-12-18T04:42:42;30.63;;;10.83;;
54871;SDS011;43914;57.680;11.982;2022-12-18T04:45:09;31.57;;;11.07;;
54871;SDS011;43914;57.680;11.982;2022-12-18T04:47:35;32.20;;;10.93;;
54871;SDS011;43914;57.680;11.982;2022-12-18T04:50:04;24.63;;;9.08;;
54871;SDS011;43914;57.680;11.982;2022-12-18T04:52:31;30.17;;;8.48;;
54871;SDS011;43914;57.680;11.982;2022-12-18T04:54:57;27.10;;;9.30;;
54871;SDS011;43914;57.680;11.982;2022-12-18T04:57:23;25.03;;;9.17;;
54871;SDS011;43914;57.680;11.982;2022-12-18T04:59:49;26.27;;;9.27;;
54871;SDS011;43914;57.680;11.982;2022-12-18T05:02:14;28.40;;;9.40;;
54871;SDS011;43914;57.680;11.982;2022-12-18T05:04:40;23.53;;;9.07;;
54871;SDS011;43914;57.680;11.982;2022-12-18T05:07:06;26.90;;;8.83;;
54871;SDS011;43914;57.680;11.982;2022-12-18T05:09:32;20.83;;;7.63;;
54871;SDS011;43914;57.680;11.982;2022-12-18T05:11:58;27.30;;;8.07;;
54871;SDS011;43914;57.680;11.982;2022-12-18T05:14:24;24.57;;;8.10;;
54871;SDS011;43914;57.680;11.982;2022-12-18T05:16:50;23.43;;;7.83;;
54871;SDS011;43914;57.680;11.982;2022-12-18T05:19:16;19.13;;;5.50;;
54871;SDS011;43914;57.680;11.982;2022-12-18T05:21:42;22.73;;;7.90;;
54871;SDS011;43914;57.680;11.982;2022-12-18T05:24:08;30.20;;;8.10;;
54871;SDS011;43914;57.680;11.982;2022-12-18T05:26:34;25.70;;;8.03;;
54871;SDS011;43914;57.680;11.982;2022-12-18T05:29:00;21.57;;;7.37;;
54871;SDS011;43914;57.680;11.982;2022-12-18T05:31:26;22.73;;;7.22;;
54871;SDS011;43914;57.680;11.982;2022-12-18T05:33:52;27.50;;;7.00;;
54871;SDS011;43914;57.680;11.982;2022-12-18T05:36:19;19.87;;;6.00;;
54871;SDS011;43914;57.680;11.982;2022-12-18T05:38:45;21.40;;;5.97;;
54871;SDS011;43914;57.680;11.982;2022-12-18T05:41:11;19.07;;;6.12;;
54871;SDS011;43914;57.680;11.982;2022-12-18T05:43:38;21.57;;;5.83;;
54871;SDS011;43914;57.680;11.982;2022-12-18T05:46:11;19.40;;;5.00;;
54871;SDS011;43914;57.680;11.982;2022-12-18T05:48:36;16.35;;;5.10;;
54871;SDS011;43914;57.680;11.982;2022-12-18T05:51:06;15.03;;;4.62;;
54871;SDS011;43914;57.680;11.982;2022-12-18T05:53:37;18.20;;;4.55;;
54871;SDS011;43914;57.680;11.982;2022-12-18T05:56:04;19.85;;;5.58;;
54871;SDS011;43914;57.680;11.982;2022-12-18T05:58:33;17.87;;;5.08;;
54871;SDS011;43914;57.680;11.982;2022-12-18T06:01:19;17.17;;;4.47;;
54871;SDS011;43914;57.680;11.982;2022-12-18T06:03:46;15.25;;;4.83;;
54871;SDS011;43914;57.680;11.982;2022-12-18T06:06:19;15.83;;;4.87;;
54871;SDS011;43914;57.680;11.982;2022-12-18T06:08:48;16.20;;;4.95;;
54871;SDS011;43914;57.680;11.982;2022-12-18T06:11:16;14.60;;;4.78;;
54871;SDS011;43914;57.680;11.982;2022-12-18T06:13:45;17.92;;;5.15;;
54871;SDS011;43914;57.680;11.982;2022-12-18T06:16:11;17.12;;;5.22;;
54871;SDS011;43914;57.680;11.982;2022-12-18T06:18:37;25.77;;;5.77;;
54871;SDS011;43914;57.680;11.982;2022-12-18T06:21:04;21.35;;;5.08;;
54871;SDS011;43914;57.680;11.982;2022-12-18T06:23:30;19.82;;;5.20;;
54871;SDS011;43914;57.680;11.982;2022-12-18T06:25:56;17.77;;;5.17;;
54871;SDS011;43914;57.680;11.982;2022-12-18T06:28:22;18.02;;;5.55;;
54871;SDS011;43914;57.680;11.982;2022-12-18T06:30:49;12.82;;;4.30;;
54871;SDS011;43914;57.680;11.982;2022-12-18T06:33:15;14.87;;;4.37;;
54871;SDS011;43914;57.680;11.982;2022-12-18T06:35:46;13.55;;;3.92;;
54871;SDS011;43914;57.680;11.982;2022-12-18T06:38:12;19.02;;;4.47;;
54871;SDS011;43914;57.680;11.982;2022-12-18T06:40:38;16.37;;;4.08;;
54871;SDS011;43914;57.680;11.982;2022-12-18T06:43:04;15.05;;;4.45;;
54871;SDS011;43914;57.680;11.982;2022-12-18T06:45:31;13.78;;;4.35;;
54871;SDS011;43914;57.680;11.982;2022-12-18T06:47:57;18.27;;;4.67;;
54871;SDS011;43914;57.680;11.982;2022-12-18T06:50:23;16.12;;;4.47;;
54871;SDS011;43914;57.680;11.982;2022-12-18T06:52:49;13.60;;;4.40;;
54871;SDS011;43914;57.680;11.982;2022-12-18T06:55:15;13.43;;;4.30;;
54871;SDS011;43914;57.680;11.982;2022-12-18T06:57:43;13.88;;;4.20;;
54871;SDS011;43914;57.680;11.982;2022-12-18T07:00:09;14.40;;;4.65;;
54871;SDS011;43914;57.680;11.982;2022-12-18T07:02:37;15.65;;;4.30;;
54871;SDS011;43914;57.680;11.982;2022-12-18T07:05:03;14.70;;;4.53;;
54871;SDS011;43914;57.680;11.982;2022-12-18T07:07:30;16.80;;;4.90;;
54871;SDS011;43914;57.680;11.982;2022-12-18T07:09:56;18.23;;;5.03;;
54871;SDS011;43914;57.680;11.982;2022-12-18T07:12:22;14.43;;;3.83;;
54871;SDS011;43914;57.680;11.982;2022-12-18T07:14:48;15.85;;;4.45;;
54871;SDS011;43914;57.680;11.982;2022-12-18T07:17:14;12.47;;;3.13;;
54871;SDS011;43914;57.680;11.982;2022-12-18T07:19:40;18.57;;;4.43;;
54871;SDS011;43914;57.680;11.982;2022-12-18T07:22:05;14.47;;;4.40;;
54871;SDS011;43914;57.680;11.982;2022-12-18T07:24:32;12.87;;;4.03;;
54871;SDS011;43914;57.680;11.982;2022-12-18T07:26:59;15.83;;;4.15;;
54871;SDS011;43914;57.680;11.982;2022-12-18T07:29:25;18.17;;;3.92;;
54871;SDS011;43914;57.680;11.982;2022-12-18T07:31:51;13.10;;;3.90;;
54871;SDS011;43914;57.680;11.982;2022-12-18T07:34:17;15.20;;;4.30;;
54871;SDS011;43914;57.680;11.982;2022-12-18T07:36:43;14.80;;;3.50;;
54871;SDS011;43914;57.680;11.982;2022-12-18T07:39:12;17.30;;;4.03;;
54871;SDS011;43914;57.680;11.982;2022-12-18T07:41:38;19.12;;;4.12;;
54871;SDS011;43914;57.680;11.982;2022-12-18T07:44:08;17.07;;;3.45;;
54871;SDS011;43914;57.680;11.982;2022-12-18T07:46:36;16.60;;;3.52;;
54871;SDS011;43914;57.680;11.982;2022-12-18T07:49:02;16.42;;;3.87;;
54871;SDS011;43914;57.680;11.982;2022-12-18T07:51:27;15.30;;;4.00;;
54871;SDS011;43914;57.680;11.982;2022-12-18T07:53:56;18.65;;;5.08;;
54871;SDS011;43914;57.680;11.982;2022-12-18T07:56:22;14.45;;;3.45;;
54871;SDS011;43914;57.680;11.982;2022-12-18T07:58:48;21.00;;;4.20;;
54871;SDS011;43914;57.680;11.982;2022-12-18T08:01:14;20.27;;;4.30;;
54871;SDS011;43914;57.680;11.982;2022-12-18T08:03:40;15.38;;;4.20;;
54871;SDS011;43914;57.680;11.982;2022-12-18T08:06:07;16.75;;;4.58;;
54871;SDS011;43914;57.680;11.982;2022-12-18T08:08:34;16.17;;;4.12;;
54871;SDS011;43914;57.680;11.982;2022-12-18T08:11:02;13.45;;;3.72;;
54871;SDS011;43914;57.680;11.982;2022-12-18T08:13:28;16.40;;;4.15;;
54871;SDS011;43914;57.680;11.982;2022-12-18T08:18:32;12.07;;;3.02;;
54871;SDS011;43914;57.680;11.982;2022-12-18T08:21:12;18.35;;;4.33;;
54871;SDS011;43914;57.680;11.982;2022-12-18T08:23:40;13.40;;;3.52;;
54871;SDS011;43914;57.680;11.982;2022-12-18T08:26:07;15.28;;;4.25;;
54871;SDS011;43914;57.680;11.982;2022-12-18T08:28:33;21.67;;;4.87;;
54871;SDS011;43914;57.680;11.982;2022-12-18T08:30:59;17.70;;;4.03;;
54871;SDS011;43914;57.680;11.982;2022-12-18T08:33:26;20.77;;;4.80;;
54871;SDS011;43914;57.680;11.982;2022-12-18T08:35:52;15.98;;;4.15;;
54871;SDS011;43914;57.680;11.982;2022-12-18T08:38:19;17.62;;;4.17;;
54871;SDS011;43914;57.680;11.982;2022-12-18T08:40:45;15.63;;;4.00;;
54871;SDS011;43914;57.680;11.982;2022-12-18T08:43:12;12.58;;;3.33;;
54871;SDS011;43914;57.680;11.982;2022-12-18T08:45:57;20.00;;;4.65;;
54871;SDS011;43914;57.680;11.982;2022-12-18T08:48:23;24.77;;;5.43;;
54871;SDS011;43914;57.680;11.982;2022-12-18T08:50:58;15.67;;;4.17;;
54871;SDS011;43914;57.680;11.982;2022-12-18T08:53:26;21.85;;;5.17;;
54871;SDS011;43914;57.680;11.982;2022-12-18T08:55:53;15.95;;;4.83;;
54871;SDS011;43914;57.680;11.982;2022-12-18T08:58:19;21.15;;;5.00;;
54871;SDS011;43914;57.680;11.982;2022-12-18T09:00:46;21.48;;;5.75;;
54871;SDS011;43914;57.680;11.982;2022-12-18T09:03:12;14.95;;;4.30;;
54871;SDS011;43914;57.680;11.982;2022-12-18T09:05:40;18.10;;;4.80;;
54871;SDS011;43914;57.680;11.982;2022-12-18T09:08:06;17.40;;;5.30;;
54871;SDS011;43914;57.680;11.982;2022-12-18T09:10:32;16.42;;;5.10;;
54871;SDS011;43914;57.680;11.982;2022-12-18T09:12:59;21.05;;;5.20;;
54871;SDS011;43914;57.680;11.982;2022-12-18T09:15:30;21.77;;;5.37;;
54871;SDS011;43914;57.680;11.982;2022-12-18T09:17:53;15.10;;;4.15;;
54871;SDS011;43914;57.680;11.982;2022-12-18T09:20:19;19.03;;;5.03;;
54871;SDS011;43914;57.680;11.982;2022-12-18T09:22:45;15.73;;;4.87;;
54871;SDS011;43914;57.680;11.982;2022-12-18T09:25:11;17.33;;;5.67;;
54871;SDS011;43914;57.680;11.982;2022-12-18T09:27:37;21.30;;;5.97;;
54871;SDS011;43914;57.680;11.982;2022-12-18T09:30:05;15.45;;;4.87;;
54871;SDS011;43914;57.680;11.982;2022-12-18T09:32:32;16.15;;;4.72;;
54871;SDS011;43914;57.680;11.982;2022-12-18T09:34:58;24.25;;;5.12;;
54871;SDS011;43914;57.680;11.982;2022-12-18T09:37:24;17.85;;;4.85;;
54871;SDS011;43914;57.680;11.982;2022-12-18T09:39:51;16.17;;;5.00;;
54871;SDS011;43914;57.680;11.982;2022-12-18T09:42:20;16.17;;;4.97;;
54871;SDS011;43914;57.680;11.982;2022-12-18T09:44:51;18.85;;;5.12;;
54871;SDS011;43914;57.680;11.982;2022-12-18T09:47:22;19.82;;;4.80;;
54871;SDS011;43914;57.680;11.982;2022-12-18T09:50:01;22.00;;;5.00;;
54871;SDS011;43914;57.680;11.982;2022-12-18T09:52:39;16.05;;;4.83;;
54871;SDS011;43914;57.680;11.982;2022-12-18T09:55:16;16.70;;;4.50;;
54871;SDS011;43914;57.680;11.982;2022-12-18T09:57:52;14.55;;;4.10;;
54871;SDS011;43914;57.680;11.982;2022-12-18T10:00:23;13.83;;;4.42;;
54871;SDS011;43914;57.680;11.982;2022-12-18T10:02:56;16.70;;;4.30;;
54871;SDS011;43914;57.680;11.982;2022-12-18T10:05:34;20.55;;;4.45;;
54871;SDS011;43914;57.680;11.982;2022-12-18T10:08:24;16.97;;;3.50;;
54871;SDS011;43914;57.680;11.982;2022-12-18T10:11:01;14.83;;;4.15;;
54871;SDS011;43914;57.680;11.982;2022-12-18T10:21:32;15.48;;;3.65;;
54871;SDS011;43914;57.680;11.982;2022-12-18T10:24:14;16.15;;;3.62;;
54871;SDS011;43914;57.680;11.982;2022-12-18T10:26:47;15.13;;;4.17;;
54871;SDS011;43914;57.680;11.982;2022-12-18T10:29:14;18.60;;;4.10;;
54871;SDS011;43914;57.680;11.982;2022-12-18T10:31:41;14.45;;;4.33;;
54871;SDS011;43914;57.680;11.982;2022-12-18T10:34:11;14.75;;;3.52;;
54871;SDS011;43914;57.680;11.982;2022-12-18T10:36:39;19.95;;;3.95;;
54871;SDS011;43914;57.680;11.982;2022-12-18T10:39:14;10.48;;;2.98;;
54871;SDS011;43914;57.680;11.982;2022-12-18T10:41:48;16.57;;;3.98;;
54871;SDS011;43914;57.680;11.982;2022-12-18T10:44:26;13.43;;;3.52;;
54871;SDS011;43914;57.680;11.982;2022-12-18T10:47:03;14.83;;;3.62;;
54871;SDS011;43914;57.680;11.982;2022-12-18T10:49:31;14.43;;;3.42;;
54871;SDS011;43914;57.680;11.982;2022-12-18T10:52:19;10.08;;;3.22;;
54871;SDS011;43914;57.680;11.982;2022-12-18T10:54:54;8.80;;;2.67;;
54871;SDS011;43914;57.680;11.982;2022-12-18T11:00:23;12.63;;;3.40;;
54871;SDS011;43914;57.680;11.982;2022-12-18T11:02:52;16.17;;;3.70;;
54871;SDS011;43914;57.680;11.982;2022-12-18T11:05:25;14.78;;;3.35;;
54871;SDS011;43914;57.680;11.982;2022-12-18T11:08:04;14.30;;;3.52;;
54871;SDS011;43914;57.680;11.982;2022-12-18T11:10:32;13.15;;;3.15;;
54871;SDS011;43914;57.680;11.982;2022-12-18T11:15:51;15.65;;;3.25;;
54871;SDS011;43914;57.680;11.982;2022-12-18T11:18:22;14.15;;;4.33;;
54871;SDS011;43914;57.680;11.982;2022-12-18T11:20:59;10.35;;;2.80;;
54871;SDS011;43914;57.680;11.982;2022-12-18T11:23:37;14.35;;;3.87;;
54871;SDS011;43914;57.680;11.982;2022-12-18T11:26:16;13.32;;;3.27;;
54871;SDS011;43914;57.680;11.982;2022-12-18T11:31:25;12.47;;;3.50;;
54871;SDS011;43914;57.680;11.982;2022-12-18T11:36:47;19.13;;;3.53;;
54871;SDS011;43914;57.680;11.982;2022-12-18T11:45:04;12.88;;;3.55;;
54871;SDS011;43914;57.680;11.982;2022-12-18T11:47:58;16.02;;;4.03;;
54871;SDS011;43914;57.680;11.982;2022-12-18T12:04:24;13.72;;;3.72;;
54871;SDS011;43914;57.680;11.982;2022-12-18T12:07:26;20.32;;;4.55;;
54871;SDS011;43914;57.680;11.982;2022-12-18T12:13:32;16.55;;;4.33;;
54871;SDS011;43914;57.680;11.982;2022-12-18T12:18:51;15.18;;;3.77;;
54871;SDS011;43914;57.680;11.982;2022-12-18T12:33:57;13.85;;;4.10;;
54871;SDS011;43914;57.680;11.982;2022-12-18T12:39:37;13.53;;;3.50;;
54871;SDS011;43914;57.680;11.982;2022-12-18T12:42:10;17.87;;;4.05;;
54871;SDS011;43914;57.680;11.982;2022-12-18T12:45:14;15.75;;;3.40;;
54871;SDS011;43914;57.680;11.982;2022-12-18T12:47:47;13.32;;;3.77;;
54871;SDS011;43914;57.680;11.982;2022-12-18T12:50:16;13.55;;;3.37;;
54871;SDS011;43914;57.680;11.982;2022-12-18T12:52:52;15.20;;;3.83;;
54871;SDS011;43914;57.680;11.982;2022-12-18T12:55:22;14.45;;;3.67;;
54871;SDS011;43914;57.680;11.982;2022-12-18T13:00:50;10.80;;;2.37;;
54871;SDS011;43914;57.680;11.982;2022-12-18T13:03:32;11.78;;;2.90;;
54871;SDS011;43914;57.680;11.982;2022-12-18T13:06:07;13.88;;;2.47;;
54871;SDS011;43914;57.680;11.982;2022-12-18T13:08:52;15.45;;;3.15;;
54871;SDS011;43914;57.680;11.982;2022-12-18T13:11:35;13.40;;;2.72;;
54871;SDS011;43914;57.680;11.982;2022-12-18T13:14:33;14.28;;;3.00;;
54871;SDS011;43914;57.680;11.982;2022-12-18T13:20:04;10.15;;;2.12;;
54871;SDS011;43914;57.680;11.982;2022-12-18T13:28:03;11.28;;;2.85;;
54871;SDS011;43914;57.680;11.982;2022-12-18T13:36:10;12.35;;;3.00;;
54871;SDS011;43914;57.680;11.982;2022-12-18T13:47:03;12.98;;;3.17;;
54871;SDS011;43914;57.680;11.982;2022-12-18T13:49:40;10.43;;;2.50;;
54871;SDS011;43914;57.680;11.982;2022-12-18T13:52:17;13.10;;;2.40;;
54871;SDS011;43914;57.680;11.982;2022-12-18T13:54:45;12.58;;;3.00;;
54871;SDS011;43914;57.680;11.982;2022-12-18T13:58:14;11.15;;;2.58;;
54871;SDS011;43914;57.680;11.982;2022-12-18T14:02:58;12.75;;;2.77;;
54871;SDS011;43914;57.680;11.982;2022-12-18T14:05:27;13.00;;;2.55;;
54871;SDS011;43914;57.680;11.982;2022-12-18T14:08:11;9.28;;;2.30;;
54871;SDS011;43914;57.680;11.982;2022-12-18T14:10:44;12.95;;;2.80;;
54871;SDS011;43914;57.680;11.982;2022-12-18T14:13:21;9.55;;;2.70;;
54871;SDS011;43914;57.680;11.982;2022-12-18T14:15:54;10.40;;;2.92;;
54871;SDS011;43914;57.680;11.982;2022-12-18T14:18:22;19.00;;;3.42;;
54871;SDS011;43914;57.680;11.982;2022-12-18T14:20:55;10.57;;;2.73;;
54871;SDS011;43914;57.680;11.982;2022-12-18T14:28:53;13.45;;;3.10;;
54871;SDS011;43914;57.680;11.982;2022-12-18T14:31:22;15.15;;;3.40;;
54871;SDS011;43914;57.680;11.982;2022-12-18T14:33:52;12.80;;;2.80;;
54871;SDS011;43914;57.680;11.982;2022-12-18T14:36:23;10.72;;;3.10;;
54871;SDS011;43914;57.680;11.982;2022-12-18T14:38:55;20.32;;;3.60;;
54871;SDS011;43914;57.680;11.982;2022-12-18T14:41:25;17.20;;;4.37;;
54871;SDS011;43914;57.680;11.982;2022-12-18T14:43:53;16.00;;;3.70;;
54871;SDS011;43914;57.680;11.982;2022-12-18T14:46:30;21.20;;;5.15;;
54871;SDS011;43914;57.680;11.982;2022-12-18T14:49:04;19.40;;;5.47;;
54871;SDS011;43914;57.680;11.982;2022-12-18T14:51:50;19.02;;;5.58;;
54871;SDS011;43914;57.680;11.982;2022-12-18T14:54:19;19.35;;;6.58;;
54871;SDS011;43914;57.680;11.982;2022-12-18T14:56:51;20.05;;;6.45;;
54871;SDS011;43914;57.680;11.982;2022-12-18T14:59:24;22.52;;;6.37;;
54871;SDS011;43914;57.680;11.982;2022-12-18T15:05:03;23.40;;;7.40;;
54871;SDS011;43914;57.680;11.982;2022-12-18T15:10:16;24.73;;;7.97;;
54871;SDS011;43914;57.680;11.982;2022-12-18T15:20:41;35.30;;;10.38;;
54871;SDS011;43914;57.680;11.982;2022-12-18T15:25:57;31.27;;;10.60;;
54871;SDS011;43914;57.680;11.982;2022-12-18T15:28:31;34.00;;;11.08;;
54871;SDS011;43914;57.680;11.982;2022-12-18T15:31:05;40.73;;;13.10;;
54871;SDS011;43914;57.680;11.982;2022-12-18T15:33:42;43.52;;;14.23;;
54871;SDS011;43914;57.680;11.982;2022-12-18T15:36:13;43.78;;;14.40;;
54871;SDS011;43914;57.680;11.982;2022-12-18T15:38:41;42.20;;;15.43;;
54871;SDS011;43914;57.680;11.982;2022-12-18T15:41:13;36.08;;;12.30;;
54871;SDS011;43914;57.680;11.982;2022-12-18T15:43:42;53.92;;;18.62;;
54871;SDS011;43914;57.680;11.982;2022-12-18T15:46:18;54.10;;;18.45;;
54871;SDS011;43914;57.680;11.982;2022-12-18T15:48:51;49.42;;;18.10;;
54871;SDS011;43914;57.680;11.982;2022-12-18T15:53:49;43.85;;;16.25;;
54871;SDS011;43914;57.680;11.982;2022-12-18T15:56:19;55.20;;;18.85;;
54871;SDS011;43914;57.680;11.982;2022-12-18T15:59:08;48.25;;;17.20;;
54871;SDS011;43914;57.680;11.982;2022-12-18T16:01:36;50.12;;;17.90;;
54871;SDS011;43914;57.680;11.982;2022-12-18T16:04:02;56.27;;;19.13;;
54871;SDS011;43914;57.680;11.982;2022-12-18T16:06:28;46.63;;;17.40;;
54871;SDS011;43914;57.680;11.982;2022-12-18T16:08:54;40.03;;;15.15;;
54871;SDS011;43914;57.680;11.982;2022-12-18T16:11:24;42.70;;;16.60;;
54871;SDS011;43914;57.680;11.982;2022-12-18T16:14:26;46.85;;;18.32;;
54871;SDS011;43914;57.680;11.982;2022-12-18T16:16:56;42.30;;;15.23;;
54871;SDS011;43914;57.680;11.982;2022-12-18T16:19:25;50.03;;;19.03;;
54871;SDS011;43914;57.680;11.982;2022-12-18T16:21:52;48.00;;;17.37;;
54871;SDS011;43914;57.680;11.982;2022-12-18T16:24:24;49.42;;;19.45;;
54871;SDS011;43914;57.680;11.982;2022-12-18T16:26:57;39.48;;;15.85;;
54871;SDS011;43914;57.680;11.982;2022-12-18T16:29:26;55.52;;;18.73;;
54871;SDS011;43914;57.680;11.982;2022-12-18T16:31:53;50.38;;;18.87;;
54871;SDS011;43914;57.680;11.982;2022-12-18T16:34:27;37.90;;;16.60;;
54871;SDS011;43914;57.680;11.982;2022-12-18T16:36:59;34.88;;;12.28;;
54871;SDS011;43914;57.680;11.982;2022-12-18T16:39:37;48.55;;;18.00;;
54871;SDS011;43914;57.680;11.982;2022-12-18T16:42:05;48.13;;;19.40;;
54871;SDS011;43914;57.680;11.982;2022-12-18T16:44:42;44.93;;;17.30;;
54871;SDS011;43914;57.680;11.982;2022-12-18T16:47:08;44.18;;;17.07;;
54871;SDS011;43914;57.680;11.982;2022-12-18T16:49:37;48.35;;;17.57;;
54871;SDS011;43914;57.680;11.982;2022-12-18T16:52:03;53.50;;;18.93;;
54871;SDS011;43914;57.680;11.982;2022-12-18T16:54:31;51.23;;;19.00;;